Time,TemperatureF,DewpointF,PressureIn,WindDirection,WindDirectionDegrees,WindSpeedMPH,WindSpeedGustMPH,Humidity,HourlyPrecipIn,Conditions,Clouds,dailyrainin,SoftwareType,DateUTC
2013-12-28 00:13:00,25.0,20.0,27.90,SW,229,0.0,2.0,80,0.00,,,0.00,,2013-12-28 05:13:00,
2013-12-28 00:22:00,24.0,19.0,27.89,WSW,253,0.0,1.0,82,0.00,,,0.00,,2013-12-28 05:22:00,
2013-12-28 00:43:00,23.0,19.0,27.88,WSW,257,1.0,2.0,84,0.00,,,0.00,,2013-12-28 05:43:00,
2013-12-28 00:53:00,23.0,19.0,27.87,WSW,257,0.0,0.0,85,0.00,,,0.00,,2013-12-28 05:53:00,
2013-12-28 01:22:00,23.0,19.0,27.87,WSW,245,0.0,2.0,85,0.00,,,0.00,,2013-12-28 06:22:00,
2013-12-28 01:42:00,23.0,19.0,27.87,ESE,118,1.0,3.0,85,0.00,,,0.00,,2013-12-28 06:42:00,
2013-12-28 01:52:00,22.0,19.0,27.86,ENE,57,0.0,3.0,87,0.00,,,0.00,,2013-12-28 06:52:00,
2013-12-28 02:22:00,23.0,20.0,27.85,SW,229,1.0,3.0,87,0.00,,,0.00,,2013-12-28 07:22:00,
2013-12-28 02:32:00,23.0,20.0,27.85,SW,229,1.0,3.0,87,0.00,,,0.00,,2013-12-28 07:32:00,
2013-12-28 02:42:00,23.0,20.0,27.85,SW,229,1.0,3.0,87,0.00,,,0.00,,2013-12-28 07:42:00,
2013-12-28 02:52:00,22.0,19.0,27.86,WSW,252,2.0,2.0,87,0.00,,,0.00,,2013-12-28 07:52:00,
2013-12-28 03:22:00,24.0,20.0,27.86,SW,219,2.0,3.0,86,0.00,,,0.00,,2013-12-28 08:22:00,
2013-12-28 03:42:00,22.0,18.0,27.85,ENE,75,0.0,1.0,86,0.00,,,0.00,,2013-12-28 08:42:00,
2013-12-28 03:52:00,21.0,18.0,27.84,ESE,107,0.0,1.0,88,0.00,,,0.00,,2013-12-28 08:52:00,
2013-12-28 04:11:00,22.0,19.0,27.83,ESE,122,0.0,1.0,88,0.00,,,0.00,,2013-12-28 09:11:00,
2013-12-28 04:22:00,22.0,19.0,27.84,East,98,1.0,2.0,87,0.00,,,0.00,,2013-12-28 09:22:00,
2013-12-28 04:43:00,21.0,18.0,27.83,ENE,64,0.0,2.0,87,0.00,,,0.00,,2013-12-28 09:43:00,
2013-12-28 04:53:00,21.0,18.0,27.83,NE,44,1.0,2.0,88,0.00,,,0.00,,2013-12-28 09:53:00,
2013-12-28 05:12:00,21.0,18.0,27.82,NE,49,2.0,2.0,89,0.00,,,0.00,,2013-12-28 10:12:00,
2013-12-28 05:23:00,22.0,19.0,27.81,NE,44,0.0,2.0,88,0.00,,,0.00,,2013-12-28 10:23:00,
2013-12-28 05:43:00,22.0,19.0,27.81,NE,44,1.0,1.0,87,0.00,,,0.00,,2013-12-28 10:43:00,
2013-12-28 05:53:00,21.0,18.0,27.81,NNE,23,0.0,2.0,87,0.00,,,0.00,,2013-12-28 10:53:00,
2013-12-28 06:12:00,22.0,19.0,27.81,ENE,65,1.0,2.0,88,0.00,,,0.00,,2013-12-28 11:12:00,
2013-12-28 06:22:00,22.0,19.0,27.80,ENE,64,1.0,2.0,88,0.00,,,0.00,,2013-12-28 11:22:00,
2013-12-28 06:43:00,22.0,19.0,27.80,ENE,64,0.0,1.0,88,0.00,,,0.00,,2013-12-28 11:43:00,
2013-12-28 06:52:00,22.0,19.0,27.79,ENE,64,1.0,1.0,88,0.00,,,0.00,,2013-12-28 11:52:00,
2013-12-28 07:11:00,23.0,20.0,27.79,North,359,0.0,2.0,87,0.00,,,0.00,,2013-12-28 12:11:00,
2013-12-28 07:23:00,23.0,20.0,27.79,NNE,28,1.0,2.0,87,0.00,,,0.00,,2013-12-28 12:23:00,
2013-12-28 07:42:00,22.0,19.0,27.78,West,280,0.0,2.0,88,0.00,,,0.00,,2013-12-28 12:42:00,
2013-12-28 07:52:00,23.0,20.0,27.78,West,281,0.0,1.0,89,0.00,,,0.00,,2013-12-28 12:52:00,
2013-12-28 08:22:00,24.0,21.0,27.78,NE,50,1.0,2.0,89,0.00,,,0.00,,2013-12-28 13:22:00,
2013-12-28 08:42:00,24.0,21.0,27.78,ENE,76,1.0,3.0,88,0.00,,,0.00,,2013-12-28 13:42:00,
2013-12-28 08:52:00,24.0,21.0,27.78,ENE,78,0.0,1.0,88,0.00,,,0.00,,2013-12-28 13:52:00,
2013-12-28 09:22:00,25.0,21.0,27.77,ENE,65,1.0,2.0,86,0.00,,,0.00,,2013-12-28 14:22:00,
2013-12-28 09:42:00,25.0,21.0,27.77,East,85,1.0,2.0,86,0.00,,,0.00,,2013-12-28 14:42:00,
2013-12-28 09:53:00,26.0,22.0,27.77,ENE,61,1.0,3.0,86,0.00,,,0.00,,2013-12-28 14:53:00,
2013-12-28 10:22:00,28.0,24.0,27.77,ENE,72,2.0,4.0,84,0.00,,,0.00,,2013-12-28 15:22:00,
2013-12-28 10:44:00,29.0,24.0,27.76,SE,129,1.0,3.0,82,0.00,,,0.00,,2013-12-28 15:44:00,
2013-12-28 10:53:00,31.0,25.0,27.75,SE,129,0.0,1.0,78,0.00,,,0.00,,2013-12-28 15:53:00,
2013-12-28 11:03:00,31.0,25.0,27.75,SE,129,0.0,1.0,78,0.00,,,0.00,,2013-12-28 16:03:00,
2013-12-28 11:13:00,31.0,25.0,27.75,SE,129,0.0,1.0,78,0.00,,,0.00,,2013-12-28 16:13:00,
2013-12-28 11:23:00,31.0,25.0,27.75,SE,129,0.0,1.0,78,0.00,,,0.00,,2013-12-28 16:23:00,
2013-12-28 11:43:00,32.0,26.0,27.74,East,79,2.0,4.0,78,0.00,,,0.00,,2013-12-28 16:43:00,
2013-12-28 11:53:00,32.0,26.0,27.74,East,79,2.0,4.0,78,0.00,,,0.00,,2013-12-28 16:53:00,
2013-12-28 12:12:00,32.0,26.0,27.74,East,94,0.0,2.0,79,0.00,,,0.00,,2013-12-28 17:12:00,
2013-12-28 12:22:00,32.0,26.0,27.74,East,94,0.0,2.0,79,0.00,,,0.00,,2013-12-28 17:22:00,
2013-12-28 12:52:00,35.0,28.0,27.73,SSW,203,2.0,5.0,74,0.00,,,0.00,,2013-12-28 17:52:00,
2013-12-28 13:12:00,36.0,29.0,27.72,WSW,255,1.0,3.0,74,0.00,,,0.00,,2013-12-28 18:12:00,
2013-12-28 13:22:00,36.0,28.0,27.71,WNW,294,3.0,3.0,73,0.00,,,0.00,,2013-12-28 18:22:00,
2013-12-28 13:42:00,36.0,29.0,27.70,WSW,243,2.0,4.0,75,0.00,,,0.00,,2013-12-28 18:42:00,
2013-12-28 13:52:00,36.0,29.0,27.70,SW,231,2.0,4.0,74,0.00,,,0.00,,2013-12-28 18:52:00,
2013-12-28 14:12:00,37.0,29.0,27.70,WSW,253,2.0,4.0,73,0.00,,,0.00,,2013-12-28 19:12:00,
2013-12-28 14:21:00,37.0,29.0,27.71,West,281,1.0,4.0,74,0.00,,,0.00,,2013-12-28 19:21:00,
2013-12-28 14:42:00,37.0,29.0,27.71,SSW,198,3.0,6.0,73,0.00,,,0.00,,2013-12-28 19:42:00,
2013-12-28 14:52:00,37.0,29.0,27.71,West,260,3.0,7.0,74,0.00,,,0.00,,2013-12-28 19:52:00,
2013-12-28 15:11:00,37.0,30.0,27.71,SSE,148,2.0,6.0,75,0.00,,,0.00,,2013-12-28 20:11:00,
2013-12-28 15:22:00,38.0,31.0,27.72,WNW,300,3.0,10.0,75,0.00,,,0.00,,2013-12-28 20:22:00,
2013-12-28 15:42:00,38.0,31.0,27.71,WSW,255,2.0,4.0,75,0.00,,,0.00,,2013-12-28 20:42:00,
2013-12-28 15:52:00,37.0,30.0,27.72,South,170,2.0,5.0,77,0.00,,,0.00,,2013-12-28 20:52:00,
2013-12-28 16:22:00,37.0,30.0,27.73,North,11,2.0,4.0,77,0.00,,,0.00,,2013-12-28 21:22:00,
2013-12-28 16:33:00,37.0,30.0,27.73,North,11,2.0,4.0,77,0.00,,,0.00,,2013-12-28 21:33:00,
2013-12-28 16:43:00,37.0,30.0,27.73,North,11,2.0,4.0,77,0.00,,,0.00,,2013-12-28 21:43:00,
2013-12-28 16:53:00,38.0,31.0,27.76,West,271,2.0,5.0,77,0.01,,,0.01,,2013-12-28 21:53:00,
2013-12-28 17:13:00,38.0,32.0,27.76,WNW,290,1.0,3.0,78,0.01,,,0.01,,2013-12-28 22:13:00,
2013-12-28 17:23:00,38.0,32.0,27.75,SW,214,1.0,7.0,78,0.01,,,0.01,,2013-12-28 22:23:00,
2013-12-28 17:42:00,37.0,31.0,27.74,WNW,301,1.0,6.0,79,0.01,,,0.01,,2013-12-28 22:42:00,
2013-12-28 17:52:00,37.0,31.0,27.74,WNW,301,1.0,6.0,79,0.01,,,0.01,,2013-12-28 22:52:00,
2013-12-28 18:12:00,37.0,31.0,27.76,West,277,2.0,4.0,80,0.00,,,0.01,,2013-12-28 23:12:00,
2013-12-28 18:22:00,37.0,31.0,27.76,West,269,2.0,3.0,80,0.00,,,0.01,,2013-12-28 23:22:00,
2013-12-28 18:42:00,37.0,32.0,27.75,SSW,210,1.0,3.0,81,0.00,,,0.01,,2013-12-28 23:42:00,
2013-12-28 18:53:00,37.0,32.0,27.75,SSW,210,1.0,3.0,81,0.00,,,0.01,,2013-12-28 23:53:00,
2013-12-28 19:22:00,36.0,31.0,27.76,WSW,248,1.0,2.0,81,0.00,,,0.01,,2013-12-29 00:22:00,
2013-12-28 19:42:00,36.0,31.0,27.76,WSW,240,2.0,5.0,82,0.00,,,0.01,,2013-12-29 00:42:00,
2013-12-28 19:52:00,36.0,31.0,27.78,West,269,2.0,4.0,83,0.00,,,0.01,,2013-12-29 00:52:00,
2013-12-28 20:02:00,36.0,31.0,27.78,West,269,2.0,4.0,83,0.00,,,0.01,,2013-12-29 01:02:00,
2013-12-28 20:11:00,36.0,31.0,27.78,West,269,2.0,4.0,83,0.00,,,0.01,,2013-12-29 01:11:00,
2013-12-28 20:22:00,36.0,32.0,27.80,WSW,249,2.0,5.0,84,0.00,,,0.01,,2013-12-29 01:22:00,
2013-12-28 20:42:00,36.0,31.0,27.80,WSW,246,3.0,7.0,83,0.00,,,0.01,,2013-12-29 01:42:00,
2013-12-28 20:52:00,36.0,31.0,27.80,WSW,246,3.0,7.0,83,0.00,,,0.01,,2013-12-29 01:52:00,
2013-12-28 21:22:00,37.0,32.0,27.79,West,269,1.0,7.0,81,0.00,,,0.01,,2013-12-29 02:22:00,
2013-12-28 21:42:00,36.0,31.0,27.78,SE,146,1.0,3.0,82,0.00,,,0.01,,2013-12-29 02:42:00,
2013-12-28 21:52:00,36.0,31.0,27.78,SE,146,1.0,3.0,82,0.00,,,0.01,,2013-12-29 02:52:00,
2013-12-28 22:22:00,33.0,30.0,27.76,WNW,291,1.0,3.0,88,0.00,,,0.01,,2013-12-29 03:22:00,
2013-12-28 22:43:00,34.0,31.0,27.75,West,266,1.0,2.0,87,0.00,,,0.01,,2013-12-29 03:43:00,
2013-12-28 22:53:00,32.0,29.0,27.75,ENE,63,1.0,2.0,89,0.00,,,0.01,,2013-12-29 03:53:00,
2013-12-28 23:03:00,-999.0,-99.9,27.75,ENE,63,1.0,1.0,-999,0.00,,,0.01,,2013-12-29 04:03:00,
2013-12-28 23:13:00,32.0,30.0,27.75,ENE,63,1.0,1.0,91,0.00,,,0.01,,2013-12-29 04:13:00,
2013-12-28 23:22:00,32.0,30.0,27.75,ENE,63,1.0,1.0,91,0.00,,,0.01,,2013-12-29 04:22:00,
2013-12-28 23:33:00,32.0,30.0,27.75,ENE,63,1.0,1.0,91,0.00,,,0.01,,2013-12-29 04:33:00,
2013-12-28 23:42:00,32.0,30.0,27.75,ENE,63,1.0,1.0,91,0.00,,,0.01,,2013-12-29 04:42:00,
2013-12-28 23:53:00,31.0,29.0,27.73,NE,37,2.0,2.0,91,0.00,,,0.01,,2013-12-29 04:53:00,